X  Tanca Dades meteorològiques de l'aviació METAR        EDDE Erfurt
Temperatura
4°C Temperatura
0°C Rosada
75% Humitat



Vent
11 KM/H
7 MPH
3 M/S
6 NUS



150°
SSE
Condicions actuals

Mostly Clear Majoritàriament clar
Pressió 1020 (hPa) - 30.13 (inHg)
Visibilitat 6 (milla) - 10 (km)
Aeroport
Codi aeroport EDDE

Ubicació: Erfurt
Distància: 25 (km)

Metar:
METAR EDDE 271850Z AUTO 15006KT CAVOK 04/M00 Q1019 NOSIG

Temps: 27.11.2022 19:50 CET